sensor_id;sensor_type;location;lat;lon;timestamp;pressure;altitude;pressure_sealevel;temperature;humidity
10921;BME280;5513;50.580;8.818;2022-10-31T00:01:38;99585.03;;;12.53;100.00
10921;BME280;5513;50.580;8.818;2022-10-31T00:04:08;99586.66;;;12.56;100.00
10921;BME280;5513;50.580;8.818;2022-10-31T00:06:36;99583.28;;;12.25;100.00
10921;BME280;5513;50.580;8.818;2022-10-31T00:09:05;99592.88;;;12.28;100.00
10921;BME280;5513;50.580;8.818;2022-10-31T00:11:33;99592.00;;;12.42;100.00
10921;BME280;5513;50.580;8.818;2022-10-31T00:14:03;99598.63;;;12.49;100.00
10921;BME280;5513;50.580;8.818;2022-10-31T00:16:32;99601.56;;;12.44;100.00
10921;BME280;5513;50.580;8.818;2022-10-31T00:19:02;99601.13;;;12.38;100.00
10921;BME280;5513;50.580;8.818;2022-10-31T00:21:31;99610.22;;;12.33;100.00
10921;BME280;5513;50.580;8.818;2022-10-31T00:24:02;99619.34;;;12.15;100.00
10921;BME280;5513;50.580;8.818;2022-10-31T00:26:31;99617.06;;;12.23;100.00
10921;BME280;5513;50.580;8.818;2022-10-31T00:29:00;99619.19;;;12.18;100.00
10921;BME280;5513;50.580;8.818;2022-10-31T00:31:30;99621.63;;;12.21;100.00
10921;BME280;5513;50.580;8.818;2022-10-31T00:33:58;99623.22;;;12.24;100.00
10921;BME280;5513;50.580;8.818;2022-10-31T00:36:26;99628.16;;;12.30;100.00
10921;BME280;5513;50.580;8.818;2022-10-31T00:38:55;99634.34;;;12.30;100.00
10921;BME280;5513;50.580;8.818;2022-10-31T00:41:24;99642.00;;;12.35;100.00
10921;BME280;5513;50.580;8.818;2022-10-31T00:43:52;99635.75;;;12.36;100.00
10921;BME280;5513;50.580;8.818;2022-10-31T00:46:21;99638.00;;;12.42;100.00
10921;BME280;5513;50.580;8.818;2022-10-31T00:48:51;99636.50;;;12.38;100.00
10921;BME280;5513;50.580;8.818;2022-10-31T00:51:20;99632.25;;;12.36;100.00
10921;BME280;5513;50.580;8.818;2022-10-31T00:53:49;99629.88;;;12.31;100.00
10921;BME280;5513;50.580;8.818;2022-10-31T00:56:18;99637.94;;;12.29;100.00
10921;BME280;5513;50.580;8.818;2022-10-31T00:58:46;99644.69;;;12.21;100.00
10921;BME280;5513;50.580;8.818;2022-10-31T01:01:15;99644.78;;;12.05;100.00
10921;BME280;5513;50.580;8.818;2022-10-31T01:03:44;99650.03;;;12.07;100.00
10921;BME280;5513;50.580;8.818;2022-10-31T01:06:14;99641.47;;;12.01;100.00
10921;BME280;5513;50.580;8.818;2022-10-31T01:08:42;99644.41;;;11.83;100.00
10921;BME280;5513;50.580;8.818;2022-10-31T01:11:12;99646.13;;;11.84;100.00
10921;BME280;5513;50.580;8.818;2022-10-31T01:13:41;99641.50;;;11.87;100.00
10921;BME280;5513;50.580;8.818;2022-10-31T01:16:13;99648.41;;;11.90;100.00
10921;BME280;5513;50.580;8.818;2022-10-31T01:18:42;99635.28;;;11.87;100.00
10921;BME280;5513;50.580;8.818;2022-10-31T01:21:13;99632.44;;;12.04;100.00
10921;BME280;5513;50.580;8.818;2022-10-31T01:23:45;99645.09;;;12.00;100.00
10921;BME280;5513;50.580;8.818;2022-10-31T01:26:15;99635.13;;;11.90;100.00
10921;BME280;5513;50.580;8.818;2022-10-31T01:28:46;99633.28;;;11.76;100.00
10921;BME280;5513;50.580;8.818;2022-10-31T01:31:15;99620.41;;;11.70;100.00
10921;BME280;5513;50.580;8.818;2022-10-31T01:33:45;99622.00;;;11.72;100.00
10921;BME280;5513;50.580;8.818;2022-10-31T01:36:17;99614.78;;;11.74;100.00
10921;BME280;5513;50.580;8.818;2022-10-31T01:38:49;99624.78;;;11.85;100.00
10921;BME280;5513;50.580;8.818;2022-10-31T01:41:20;99620.31;;;11.86;100.00
10921;BME280;5513;50.580;8.818;2022-10-31T01:43:51;99614.06;;;11.87;100.00
10921;BME280;5513;50.580;8.818;2022-10-31T01:46:24;99615.00;;;11.86;100.00
10921;BME280;5513;50.580;8.818;2022-10-31T01:48:54;99611.72;;;11.82;100.00
10921;BME280;5513;50.580;8.818;2022-10-31T01:51:26;99610.09;;;11.80;100.00
10921;BME280;5513;50.580;8.818;2022-10-31T01:54:00;99612.34;;;11.71;100.00
10921;BME280;5513;50.580;8.818;2022-10-31T01:56:30;99616.22;;;11.66;100.00
10921;BME280;5513;50.580;8.818;2022-10-31T01:59:01;99615.84;;;11.72;100.00
10921;BME280;5513;50.580;8.818;2022-10-31T02:01:32;99611.47;;;11.71;100.00
10921;BME280;5513;50.580;8.818;2022-10-31T02:04:03;99612.88;;;11.76;100.00
10921;BME280;5513;50.580;8.818;2022-10-31T02:06:36;99616.59;;;11.74;100.00
10921;BME280;5513;50.580;8.818;2022-10-31T02:09:07;99613.00;;;11.75;100.00
10921;BME280;5513;50.580;8.818;2022-10-31T02:11:36;99608.25;;;11.66;100.00
10921;BME280;5513;50.580;8.818;2022-10-31T02:14:04;99615.19;;;11.68;100.00
10921;BME280;5513;50.580;8.818;2022-10-31T02:16:33;99619.81;;;11.65;100.00
10921;BME280;5513;50.580;8.818;2022-10-31T02:19:02;99608.63;;;11.74;100.00
10921;BME280;5513;50.580;8.818;2022-10-31T02:21:39;99612.47;;;11.84;100.00
10921;BME280;5513;50.580;8.818;2022-10-31T02:24:49;99611.38;;;11.72;100.00
10921;BME280;5513;50.580;8.818;2022-10-31T02:27:46;99626.63;;;11.55;100.00
10921;BME280;5513;50.580;8.818;2022-10-31T02:30:20;99611.84;;;11.51;100.00
10921;BME280;5513;50.580;8.818;2022-10-31T02:33:02;99613.47;;;11.53;100.00
10921;BME280;5513;50.580;8.818;2022-10-31T02:35:41;99624.44;;;11.47;100.00
10921;BME280;5513;50.580;8.818;2022-10-31T02:38:21;99609.00;;;11.39;100.00
10921;BME280;5513;50.580;8.818;2022-10-31T02:40:59;99618.44;;;11.29;100.00
10921;BME280;5513;50.580;8.818;2022-10-31T02:43:36;99613.34;;;11.40;100.00
10921;BME280;5513;50.580;8.818;2022-10-31T02:46:13;99618.97;;;11.50;100.00
10921;BME280;5513;50.580;8.818;2022-10-31T02:48:46;99616.16;;;11.37;100.00
10921;BME280;5513;50.580;8.818;2022-10-31T02:51:17;99609.19;;;11.51;100.00
10921;BME280;5513;50.580;8.818;2022-10-31T02:53:46;99622.63;;;11.47;100.00
10921;BME280;5513;50.580;8.818;2022-10-31T02:56:16;99623.75;;;11.29;100.00
10921;BME280;5513;50.580;8.818;2022-10-31T02:58:49;99624.97;;;11.38;100.00
10921;BME280;5513;50.580;8.818;2022-10-31T03:01:49;99625.09;;;11.06;100.00
10921;BME280;5513;50.580;8.818;2022-10-31T03:04:40;99621.41;;;11.09;100.00
10921;BME280;5513;50.580;8.818;2022-10-31T03:07:18;99614.47;;;11.06;100.00
10921;BME280;5513;50.580;8.818;2022-10-31T03:09:55;99617.00;;;10.94;100.00
10921;BME280;5513;50.580;8.818;2022-10-31T03:12:37;99617.25;;;10.89;100.00
10921;BME280;5513;50.580;8.818;2022-10-31T03:15:18;99615.41;;;10.91;100.00
10921;BME280;5513;50.580;8.818;2022-10-31T03:17:54;99612.22;;;11.00;100.00
10921;BME280;5513;50.580;8.818;2022-10-31T03:20:32;99618.50;;;11.13;100.00
10921;BME280;5513;50.580;8.818;2022-10-31T03:23:03;99625.28;;;11.03;100.00
10921;BME280;5513;50.580;8.818;2022-10-31T03:25:35;99616.34;;;11.20;100.00
10921;BME280;5513;50.580;8.818;2022-10-31T03:28:06;99614.47;;;11.36;100.00
10921;BME280;5513;50.580;8.818;2022-10-31T03:30:38;99608.91;;;11.41;100.00
10921;BME280;5513;50.580;8.818;2022-10-31T03:33:11;99603.94;;;11.35;100.00
10921;BME280;5513;50.580;8.818;2022-10-31T03:35:45;99599.47;;;11.21;100.00
10921;BME280;5513;50.580;8.818;2022-10-31T03:38:15;99602.50;;;11.15;100.00
10921;BME280;5513;50.580;8.818;2022-10-31T03:40:45;99600.75;;;11.30;100.00
10921;BME280;5513;50.580;8.818;2022-10-31T03:43:19;99599.44;;;11.07;100.00
10921;BME280;5513;50.580;8.818;2022-10-31T03:45:51;99594.88;;;11.09;100.00
10921;BME280;5513;50.580;8.818;2022-10-31T03:48:23;99582.97;;;11.02;100.00
10921;BME280;5513;50.580;8.818;2022-10-31T03:51:00;99594.88;;;11.09;100.00
10921;BME280;5513;50.580;8.818;2022-10-31T03:53:33;99596.03;;;11.05;100.00
10921;BME280;5513;50.580;8.818;2022-10-31T03:56:07;99602.78;;;11.10;100.00
10921;BME280;5513;50.580;8.818;2022-10-31T03:58:43;99595.94;;;10.60;100.00
10921;BME280;5513;50.580;8.818;2022-10-31T04:01:15;99603.03;;;10.76;100.00
10921;BME280;5513;50.580;8.818;2022-10-31T04:03:47;99609.88;;;10.64;100.00
10921;BME280;5513;50.580;8.818;2022-10-31T04:06:19;99609.50;;;10.70;100.00
10921;BME280;5513;50.580;8.818;2022-10-31T04:08:56;99599.81;;;10.55;100.00
10921;BME280;5513;50.580;8.818;2022-10-31T04:11:29;99611.25;;;10.71;100.00
10921;BME280;5513;50.580;8.818;2022-10-31T04:13:59;99600.81;;;10.68;100.00
10921;BME280;5513;50.580;8.818;2022-10-31T04:16:30;99611.56;;;10.81;100.00
10921;BME280;5513;50.580;8.818;2022-10-31T04:18:59;99599.19;;;10.81;100.00
10921;BME280;5513;50.580;8.818;2022-10-31T04:21:30;99606.00;;;10.85;100.00
10921;BME280;5513;50.580;8.818;2022-10-31T04:23:58;99609.06;;;10.94;100.00
10921;BME280;5513;50.580;8.818;2022-10-31T04:26:30;99617.78;;;10.80;100.00
10921;BME280;5513;50.580;8.818;2022-10-31T04:28:59;99613.53;;;10.77;100.00
10921;BME280;5513;50.580;8.818;2022-10-31T04:31:30;99608.41;;;10.74;100.00
10921;BME280;5513;50.580;8.818;2022-10-31T04:33:59;99616.69;;;10.68;100.00
10921;BME280;5513;50.580;8.818;2022-10-31T04:36:29;99622.22;;;10.79;100.00
10921;BME280;5513;50.580;8.818;2022-10-31T04:38:58;99628.06;;;10.70;100.00
10921;BME280;5513;50.580;8.818;2022-10-31T04:41:27;99621.84;;;10.71;100.00
10921;BME280;5513;50.580;8.818;2022-10-31T04:43:58;99617.72;;;10.81;100.00
10921;BME280;5513;50.580;8.818;2022-10-31T04:46:27;99621.47;;;10.77;100.00
10921;BME280;5513;50.580;8.818;2022-10-31T04:48:56;99629.19;;;10.66;100.00
10921;BME280;5513;50.580;8.818;2022-10-31T04:51:24;99633.09;;;10.75;100.00
10921;BME280;5513;50.580;8.818;2022-10-31T04:53:55;99636.38;;;10.48;100.00
10921;BME280;5513;50.580;8.818;2022-10-31T04:56:24;99631.31;;;10.59;100.00
10921;BME280;5513;50.580;8.818;2022-10-31T04:58:52;99628.94;;;10.55;100.00
10921;BME280;5513;50.580;8.818;2022-10-31T05:01:21;99628.66;;;10.59;100.00
10921;BME280;5513;50.580;8.818;2022-10-31T05:03:50;99632.16;;;10.60;100.00
10921;BME280;5513;50.580;8.818;2022-10-31T05:06:20;99622.63;;;10.57;100.00
10921;BME280;5513;50.580;8.818;2022-10-31T05:08:48;99625.19;;;10.43;100.00
10921;BME280;5513;50.580;8.818;2022-10-31T05:11:18;99626.63;;;10.49;100.00
10921;BME280;5513;50.580;8.818;2022-10-31T05:13:47;99622.38;;;10.46;100.00
10921;BME280;5513;50.580;8.818;2022-10-31T05:16:16;99620.38;;;10.50;100.00
10921;BME280;5513;50.580;8.818;2022-10-31T05:18:44;99612.81;;;10.44;100.00
10921;BME280;5513;50.580;8.818;2022-10-31T05:21:13;99608.16;;;10.31;100.00
10921;BME280;5513;50.580;8.818;2022-10-31T05:23:47;99602.53;;;10.22;100.00
10921;BME280;5513;50.580;8.818;2022-10-31T05:26:18;99606.44;;;10.15;100.00
10921;BME280;5513;50.580;8.818;2022-10-31T05:28:46;99613.34;;;10.17;100.00
10921;BME280;5513;50.580;8.818;2022-10-31T05:31:14;99610.63;;;10.19;100.00
10921;BME280;5513;50.580;8.818;2022-10-31T05:33:48;99605.88;;;10.25;100.00
10921;BME280;5513;50.580;8.818;2022-10-31T05:36:21;99613.09;;;10.06;100.00
10921;BME280;5513;50.580;8.818;2022-10-31T05:38:51;99618.38;;;10.06;100.00
10921;BME280;5513;50.580;8.818;2022-10-31T05:41:23;99615.03;;;10.02;100.00
10921;BME280;5513;50.580;8.818;2022-10-31T05:43:52;99622.63;;;9.93;100.00
10921;BME280;5513;50.580;8.818;2022-10-31T05:46:22;99618.47;;;10.04;100.00
10921;BME280;5513;50.580;8.818;2022-10-31T05:48:52;99629.16;;;10.19;100.00
10921;BME280;5513;50.580;8.818;2022-10-31T05:51:24;99621.00;;;9.90;100.00
10921;BME280;5513;50.580;8.818;2022-10-31T05:53:52;99629.63;;;9.94;100.00
10921;BME280;5513;50.580;8.818;2022-10-31T05:56:22;99628.84;;;9.92;100.00
10921;BME280;5513;50.580;8.818;2022-10-31T05:58:52;99625.25;;;9.93;100.00
10921;BME280;5513;50.580;8.818;2022-10-31T06:01:20;99623.16;;;9.99;100.00
10921;BME280;5513;50.580;8.818;2022-10-31T06:03:49;99613.69;;;9.95;100.00
10921;BME280;5513;50.580;8.818;2022-10-31T06:06:18;99620.25;;;9.88;100.00
10921;BME280;5513;50.580;8.818;2022-10-31T06:08:46;99622.13;;;10.02;100.00
10921;BME280;5513;50.580;8.818;2022-10-31T06:11:15;99624.28;;;10.11;100.00
10921;BME280;5513;50.580;8.818;2022-10-31T06:13:45;99618.31;;;10.08;100.00
10921;BME280;5513;50.580;8.818;2022-10-31T06:16:14;99623.41;;;10.11;100.00
10921;BME280;5513;50.580;8.818;2022-10-31T06:18:45;99628.03;;;10.07;100.00
10921;BME280;5513;50.580;8.818;2022-10-31T06:21:13;99624.94;;;9.99;100.00
10921;BME280;5513;50.580;8.818;2022-10-31T06:23:45;99622.22;;;10.00;100.00
10921;BME280;5513;50.580;8.818;2022-10-31T06:26:13;99629.63;;;9.94;100.00
10921;BME280;5513;50.580;8.818;2022-10-31T06:28:42;99625.88;;;9.98;100.00
10921;BME280;5513;50.580;8.818;2022-10-31T06:31:12;99626.47;;;9.87;100.00
10921;BME280;5513;50.580;8.818;2022-10-31T06:33:41;99629.03;;;9.89;100.00
10921;BME280;5513;50.580;8.818;2022-10-31T06:36:09;99631.69;;;9.89;100.00
10921;BME280;5513;50.580;8.818;2022-10-31T06:38:38;99622.88;;;9.88;100.00
10921;BME280;5513;50.580;8.818;2022-10-31T06:41:07;99625.72;;;10.01;100.00
10921;BME280;5513;50.580;8.818;2022-10-31T06:43:35;99623.06;;;10.01;100.00
10921;BME280;5513;50.580;8.818;2022-10-31T06:46:05;99638.53;;;10.09;100.00
10921;BME280;5513;50.580;8.818;2022-10-31T06:48:35;99644.00;;;10.06;100.00
10921;BME280;5513;50.580;8.818;2022-10-31T06:51:03;99640.66;;;10.02;100.00
10921;BME280;5513;50.580;8.818;2022-10-31T06:53:32;99638.13;;;10.16;100.00
10921;BME280;5513;50.580;8.818;2022-10-31T06:56:01;99640.00;;;10.14;100.00
10921;BME280;5513;50.580;8.818;2022-10-31T06:58:29;99634.84;;;10.28;100.00
10921;BME280;5513;50.580;8.818;2022-10-31T07:00:59;99636.28;;;10.50;100.00
10921;BME280;5513;50.580;8.818;2022-10-31T07:03:28;99624.75;;;10.51;100.00
10921;BME280;5513;50.580;8.818;2022-10-31T07:05:57;99619.81;;;10.45;100.00
10921;BME280;5513;50.580;8.818;2022-10-31T07:08:26;99627.75;;;10.45;100.00
10921;BME280;5513;50.580;8.818;2022-10-31T07:10:56;99627.72;;;10.60;100.00
10921;BME280;5513;50.580;8.818;2022-10-31T07:13:25;99616.59;;;10.70;100.00
10921;BME280;5513;50.580;8.818;2022-10-31T07:15:58;99612.16;;;10.86;100.00
10921;BME280;5513;50.580;8.818;2022-10-31T07:18:27;99618.81;;;10.93;100.00
10921;BME280;5513;50.580;8.818;2022-10-31T07:20:59;99611.53;;;10.97;100.00
10921;BME280;5513;50.580;8.818;2022-10-31T07:23:27;99616.47;;;11.03;100.00
10921;BME280;5513;50.580;8.818;2022-10-31T07:25:57;99619.00;;;11.20;100.00
10921;BME280;5513;50.580;8.818;2022-10-31T07:28:27;99611.75;;;11.08;100.00
10921;BME280;5513;50.580;8.818;2022-10-31T07:30:57;99615.66;;;11.16;100.00
10921;BME280;5513;50.580;8.818;2022-10-31T07:33:25;99610.84;;;11.23;100.00
10921;BME280;5513;50.580;8.818;2022-10-31T07:35:54;99604.31;;;11.29;100.00
10921;BME280;5513;50.580;8.818;2022-10-31T07:38:24;99608.03;;;11.40;100.00
10921;BME280;5513;50.580;8.818;2022-10-31T07:40:52;99601.53;;;11.60;100.00
10921;BME280;5513;50.580;8.818;2022-10-31T07:43:20;99600.19;;;11.67;100.00
10921;BME280;5513;50.580;8.818;2022-10-31T07:45:50;99605.88;;;11.75;100.00
10921;BME280;5513;50.580;8.818;2022-10-31T07:48:19;99608.63;;;11.74;100.00
10921;BME280;5513;50.580;8.818;2022-10-31T07:50:47;99604.94;;;11.76;100.00
10921;BME280;5513;50.580;8.818;2022-10-31T07:53:16;99611.22;;;12.04;100.00
10921;BME280;5513;50.580;8.818;2022-10-31T07:55:46;99608.38;;;12.07;100.00
10921;BME280;5513;50.580;8.818;2022-10-31T07:58:16;99620.22;;;12.16;100.00
10921;BME280;5513;50.580;8.818;2022-10-31T08:00:46;99617.44;;;12.31;100.00
10921;BME280;5513;50.580;8.818;2022-10-31T08:03:17;99612.59;;;12.24;100.00
10921;BME280;5513;50.580;8.818;2022-10-31T08:05:46;99613.41;;;12.26;100.00
10921;BME280;5513;50.580;8.818;2022-10-31T08:08:15;99616.84;;;12.41;100.00
10921;BME280;5513;50.580;8.818;2022-10-31T08:10:45;99612.44;;;12.54;100.00
10921;BME280;5513;50.580;8.818;2022-10-31T08:13:14;99614.72;;;12.60;100.00
10921;BME280;5513;50.580;8.818;2022-10-31T08:15:42;99614.72;;;12.87;100.00
10921;BME280;5513;50.580;8.818;2022-10-31T08:18:16;99619.22;;;12.99;100.00
10921;BME280;5513;50.580;8.818;2022-10-31T08:20:44;99616.28;;;13.16;100.00
10921;BME280;5513;50.580;8.818;2022-10-31T08:23:14;99609.63;;;13.24;100.00
10921;BME280;5513;50.580;8.818;2022-10-31T08:25:42;99607.97;;;13.08;100.00
10921;BME280;5513;50.580;8.818;2022-10-31T08:28:15;99614.97;;;13.09;100.00
10921;BME280;5513;50.580;8.818;2022-10-31T08:30:43;99608.47;;;13.28;100.00
10921;BME280;5513;50.580;8.818;2022-10-31T08:33:14;99617.75;;;13.48;100.00
10921;BME280;5513;50.580;8.818;2022-10-31T08:35:43;99600.91;;;13.47;100.00
10921;BME280;5513;50.580;8.818;2022-10-31T08:38:12;99602.88;;;13.70;100.00
10921;BME280;5513;50.580;8.818;2022-10-31T08:40:47;99605.63;;;13.82;100.00
10921;BME280;5513;50.580;8.818;2022-10-31T08:43:17;99601.75;;;13.98;100.00
10921;BME280;5513;50.580;8.818;2022-10-31T08:45:48;99596.34;;;14.00;100.00
10921;BME280;5513;50.580;8.818;2022-10-31T08:48:17;99579.25;;;14.15;100.00
10921;BME280;5513;50.580;8.818;2022-10-31T08:50:45;99588.72;;;14.19;100.00
10921;BME280;5513;50.580;8.818;2022-10-31T08:53:15;99586.31;;;14.40;100.00
10921;BME280;5513;50.580;8.818;2022-10-31T08:55:45;99586.59;;;14.61;100.00
10921;BME280;5513;50.580;8.818;2022-10-31T08:58:17;99571.44;;;14.62;100.00
10921;BME280;5513;50.580;8.818;2022-10-31T09:00:48;99575.03;;;14.49;100.00
10921;BME280;5513;50.580;8.818;2022-10-31T09:03:18;99569.84;;;14.83;100.00
10921;BME280;5513;50.580;8.818;2022-10-31T09:05:47;99571.47;;;14.97;100.00
10921;BME280;5513;50.580;8.818;2022-10-31T09:08:17;99565.81;;;15.12;100.00
10921;BME280;5513;50.580;8.818;2022-10-31T09:10:45;99564.38;;;15.20;100.00
10921;BME280;5513;50.580;8.818;2022-10-31T09:13:17;99556.50;;;15.18;100.00
10921;BME280;5513;50.580;8.818;2022-10-31T09:15:48;99556.97;;;15.12;100.00
10921;BME280;5513;50.580;8.818;2022-10-31T09:18:19;99549.00;;;15.34;100.00
10921;BME280;5513;50.580;8.818;2022-10-31T09:20:48;99546.19;;;15.25;100.00
10921;BME280;5513;50.580;8.818;2022-10-31T09:23:18;99544.56;;;15.57;100.00
10921;BME280;5513;50.580;8.818;2022-10-31T09:25:49;99542.50;;;15.72;100.00
10921;BME280;5513;50.580;8.818;2022-10-31T09:28:21;99541.69;;;15.94;100.00
10921;BME280;5513;50.580;8.818;2022-10-31T09:30:52;99526.09;;;16.10;100.00
10921;BME280;5513;50.580;8.818;2022-10-31T09:33:21;99530.75;;;15.86;100.00
10921;BME280;5513;50.580;8.818;2022-10-31T09:35:49;99521.34;;;16.25;100.00
10921;BME280;5513;50.580;8.818;2022-10-31T09:38:19;99527.41;;;16.27;100.00
10921;BME280;5513;50.580;8.818;2022-10-31T09:40:55;99521.44;;;16.35;100.00
10921;BME280;5513;50.580;8.818;2022-10-31T09:43:37;99518.72;;;16.46;100.00
10921;BME280;5513;50.580;8.818;2022-10-31T09:46:15;99505.50;;;16.76;100.00
10921;BME280;5513;50.580;8.818;2022-10-31T09:48:55;99503.81;;;16.75;100.00
10921;BME280;5513;50.580;8.818;2022-10-31T09:51:33;99504.78;;;17.16;100.00
10921;BME280;5513;50.580;8.818;2022-10-31T09:54:06;99504.72;;;16.85;100.00
10921;BME280;5513;50.580;8.818;2022-10-31T09:56:39;99495.63;;;17.39;100.00
10921;BME280;5513;50.580;8.818;2022-10-31T09:59:19;99499.69;;;17.34;100.00
10921;BME280;5513;50.580;8.818;2022-10-31T10:01:55;99496.41;;;17.51;100.00
10921;BME280;5513;50.580;8.818;2022-10-31T10:04:36;99492.88;;;17.51;100.00
10921;BME280;5513;50.580;8.818;2022-10-31T10:07:13;99481.34;;;17.90;100.00
10921;BME280;5513;50.580;8.818;2022-10-31T10:09:45;99486.00;;;17.88;100.00
10921;BME280;5513;50.580;8.818;2022-10-31T10:12:19;99483.84;;;17.82;100.00
10921;BME280;5513;50.580;8.818;2022-10-31T10:15:05;99475.03;;;18.01;100.00
10921;BME280;5513;50.580;8.818;2022-10-31T10:17:40;99465.03;;;18.32;100.00
10921;BME280;5513;50.580;8.818;2022-10-31T10:20:25;99465.78;;;18.34;100.00
10921;BME280;5513;50.580;8.818;2022-10-31T10:23:04;99466.50;;;18.65;100.00
10921;BME280;5513;50.580;8.818;2022-10-31T10:25:38;99469.19;;;18.65;100.00
10921;BME280;5513;50.580;8.818;2022-10-31T10:28:16;99461.84;;;18.77;100.00
10921;BME280;5513;50.580;8.818;2022-10-31T10:30:51;99456.69;;;19.12;100.00
10921;BME280;5513;50.580;8.818;2022-10-31T10:33:24;99454.97;;;19.21;100.00
10921;BME280;5513;50.580;8.818;2022-10-31T10:35:59;99451.91;;;18.97;100.00
10921;BME280;5513;50.580;8.818;2022-10-31T10:38:36;99446.28;;;19.37;100.00
10921;BME280;5513;50.580;8.818;2022-10-31T10:41:11;99447.41;;;19.44;100.00
10921;BME280;5513;50.580;8.818;2022-10-31T10:43:41;99443.91;;;19.71;100.00
10921;BME280;5513;50.580;8.818;2022-10-31T10:46:24;99435.81;;;19.81;100.00
10921;BME280;5513;50.580;8.818;2022-10-31T10:49:16;99442.91;;;19.72;100.00
10921;BME280;5513;50.580;8.818;2022-10-31T10:51:50;99435.16;;;19.69;100.00
10921;BME280;5513;50.580;8.818;2022-10-31T10:54:45;99437.19;;;19.85;100.00
10921;BME280;5513;50.580;8.818;2022-10-31T10:57:38;99438.34;;;20.27;100.00
10921;BME280;5513;50.580;8.818;2022-10-31T11:00:17;99438.00;;;20.30;100.00
10921;BME280;5513;50.580;8.818;2022-10-31T11:02:48;99427.50;;;20.37;100.00
10921;BME280;5513;50.580;8.818;2022-10-31T11:05:23;99425.41;;;20.31;100.00
10921;BME280;5513;50.580;8.818;2022-10-31T11:07:51;99420.59;;;20.07;100.00
10921;BME280;5513;50.580;8.818;2022-10-31T11:10:20;99412.38;;;19.91;100.00
10921;BME280;5513;50.580;8.818;2022-10-31T11:13:02;99417.72;;;20.18;100.00
10921;BME280;5513;50.580;8.818;2022-10-31T11:15:35;99413.16;;;20.01;100.00
10921;BME280;5513;50.580;8.818;2022-10-31T11:18:17;99413.25;;;20.09;100.00
10921;BME280;5513;50.580;8.818;2022-10-31T11:20:51;99410.50;;;20.37;100.00
10921;BME280;5513;50.580;8.818;2022-10-31T11:23:25;99413.97;;;20.29;100.00
10921;BME280;5513;50.580;8.818;2022-10-31T11:25:57;99412.47;;;20.17;100.00
10921;BME280;5513;50.580;8.818;2022-10-31T11:28:29;99411.03;;;19.77;100.00
10921;BME280;5513;50.580;8.818;2022-10-31T11:31:00;99406.94;;;20.00;100.00
10921;BME280;5513;50.580;8.818;2022-10-31T11:33:33;99396.63;;;19.96;100.00
10921;BME280;5513;50.580;8.818;2022-10-31T11:36:13;99392.81;;;19.98;100.00
10921;BME280;5513;50.580;8.818;2022-10-31T11:38:43;99389.94;;;20.36;100.00
10921;BME280;5513;50.580;8.818;2022-10-31T11:41:15;99388.28;;;19.44;100.00
10921;BME280;5513;50.580;8.818;2022-10-31T11:43:50;99386.47;;;19.72;100.00
10921;BME280;5513;50.580;8.818;2022-10-31T11:46:24;99372.34;;;20.06;100.00
10921;BME280;5513;50.580;8.818;2022-10-31T11:49:02;99370.84;;;19.58;100.00
10921;BME280;5513;50.580;8.818;2022-10-31T11:51:33;99363.75;;;20.02;100.00
10921;BME280;5513;50.580;8.818;2022-10-31T11:54:04;99360.22;;;20.01;100.00
10921;BME280;5513;50.580;8.818;2022-10-31T11:56:39;99361.25;;;20.18;100.00
10921;BME280;5513;50.580;8.818;2022-10-31T11:59:17;99360.22;;;20.37;100.00
10921;BME280;5513;50.580;8.818;2022-10-31T12:01:48;99354.63;;;20.48;100.00
10921;BME280;5513;50.580;8.818;2022-10-31T12:04:27;99350.38;;;20.46;100.00
10921;BME280;5513;50.580;8.818;2022-10-31T12:06:58;99349.34;;;20.65;100.00
10921;BME280;5513;50.580;8.818;2022-10-31T12:09:32;99345.66;;;20.66;100.00
10921;BME280;5513;50.580;8.818;2022-10-31T12:12:34;99336.22;;;20.88;100.00
10921;BME280;5513;50.580;8.818;2022-10-31T12:15:31;99339.44;;;21.25;100.00
10921;BME280;5513;50.580;8.818;2022-10-31T12:18:20;99336.72;;;20.91;100.00
10921;BME280;5513;50.580;8.818;2022-10-31T12:21:06;99333.72;;;20.68;100.00
10921;BME280;5513;50.580;8.818;2022-10-31T12:23:44;99326.84;;;20.74;100.00
10921;BME280;5513;50.580;8.818;2022-10-31T12:26:20;99317.69;;;20.84;100.00
10921;BME280;5513;50.580;8.818;2022-10-31T12:29:07;99308.78;;;20.92;100.00
10921;BME280;5513;50.580;8.818;2022-10-31T12:31:49;99316.03;;;20.92;100.00
10921;BME280;5513;50.580;8.818;2022-10-31T12:37:33;99305.78;;;21.29;100.00
10921;BME280;5513;50.580;8.818;2022-10-31T12:40:28;99304.03;;;21.62;100.00
10921;BME280;5513;50.580;8.818;2022-10-31T12:43:11;99283.75;;;21.42;100.00
10921;BME280;5513;50.580;8.818;2022-10-31T12:45:52;99293.25;;;21.20;100.00
10921;BME280;5513;50.580;8.818;2022-10-31T12:48:33;99279.84;;;21.28;100.00
10921;BME280;5513;50.580;8.818;2022-10-31T12:51:15;99285.13;;;21.46;100.00
10921;BME280;5513;50.580;8.818;2022-10-31T12:54:02;99284.44;;;21.44;100.00
10921;BME280;5513;50.580;8.818;2022-10-31T12:56:43;99280.88;;;21.35;100.00
10921;BME280;5513;50.580;8.818;2022-10-31T12:59:26;99284.91;;;21.31;100.00
10921;BME280;5513;50.580;8.818;2022-10-31T13:02:02;99270.94;;;21.36;100.00
10921;BME280;5513;50.580;8.818;2022-10-31T13:04:42;99272.22;;;21.74;100.00
10921;BME280;5513;50.580;8.818;2022-10-31T13:07:28;99262.97;;;22.01;100.00
10921;BME280;5513;50.580;8.818;2022-10-31T13:10:03;99261.09;;;22.18;100.00
10921;BME280;5513;50.580;8.818;2022-10-31T13:12:34;99253.38;;;22.07;100.00
10921;BME280;5513;50.580;8.818;2022-10-31T13:15:12;99250.50;;;22.16;100.00
10921;BME280;5513;50.580;8.818;2022-10-31T13:17:46;99236.81;;;22.26;100.00
10921;BME280;5513;50.580;8.818;2022-10-31T13:20:22;99244.91;;;22.34;100.00
10921;BME280;5513;50.580;8.818;2022-10-31T13:22:54;99253.19;;;22.24;100.00
10921;BME280;5513;50.580;8.818;2022-10-31T13:25:30;99249.19;;;22.68;100.00
10921;BME280;5513;50.580;8.818;2022-10-31T13:28:05;99236.69;;;22.91;100.00
10921;BME280;5513;50.580;8.818;2022-10-31T13:30:40;99228.19;;;23.02;100.00
10921;BME280;5513;50.580;8.818;2022-10-31T13:33:13;99212.66;;;24.04;100.00